createdAt,value
2018-07-19T00:00:47.493Z,17.10
2018-07-19T00:01:52.897Z,17.10
2018-07-19T00:02:58.538Z,17.00
2018-07-19T00:04:03.984Z,17.00
2018-07-19T00:05:09.389Z,17.00
2018-07-19T00:06:14.833Z,17.00
2018-07-19T00:07:20.455Z,17.00
2018-07-19T00:08:26.289Z,17.00
2018-07-19T00:09:31.734Z,17.00
2018-07-19T00:10:37.244Z,16.90
2018-07-19T00:11:42.665Z,16.90
2018-07-19T00:12:48.192Z,16.90
2018-07-19T00:13:54.069Z,16.90
2018-07-19T00:14:59.504Z,16.80
2018-07-19T00:16:04.960Z,16.80
2018-07-19T00:17:10.427Z,16.80
2018-07-19T00:18:15.812Z,16.80
2018-07-19T00:19:21.631Z,16.80
2018-07-19T00:20:27.192Z,16.80
2018-07-19T00:21:33.048Z,16.80
2018-07-19T00:22:38.494Z,16.80
2018-07-19T00:23:43.980Z,16.80
2018-07-19T00:24:49.492Z,16.80
2018-07-19T00:25:55.964Z,16.80
2018-07-19T00:27:01.372Z,16.70
2018-07-19T00:28:06.788Z,16.80
2018-07-19T00:29:12.248Z,16.70
2018-07-19T00:30:17.681Z,16.60
2018-07-19T00:31:23.497Z,16.60
2018-07-19T00:32:28.917Z,16.50
2018-07-19T00:33:34.353Z,16.50
2018-07-19T00:34:39.988Z,16.50
2018-07-19T00:35:45.413Z,16.50
2018-07-19T00:36:50.868Z,16.60
2018-07-19T00:37:56.319Z,16.50
2018-07-19T00:39:02.060Z,16.50
2018-07-19T00:40:07.480Z,16.40
2018-07-19T00:41:13.408Z,16.50
2018-07-19T00:42:18.901Z,16.40
2018-07-19T00:43:24.367Z,16.30
2018-07-19T00:44:30.596Z,16.30
2018-07-19T00:45:36.128Z,16.30
2018-07-19T00:46:41.548Z,16.20
2018-07-19T00:47:46.941Z,16.30
2018-07-19T00:48:52.435Z,16.20
2018-07-19T00:49:57.949Z,16.20
2018-07-19T00:51:03.400Z,16.20
2018-07-19T00:52:08.845Z,16.20
2018-07-19T00:53:14.305Z,16.20
2018-07-19T00:54:19.825Z,16.20
2018-07-19T00:55:25.229Z,16.20
2018-07-19T00:56:30.677Z,16.20
2018-07-19T00:57:36.105Z,16.10
2018-07-19T00:58:41.529Z,16.10
2018-07-19T00:59:47.005Z,16.10
2018-07-19T01:00:53.441Z,16.10
2018-07-19T01:01:58.856Z,16.10
2018-07-19T01:03:04.396Z,16.00
2018-07-19T01:04:09.865Z,16.00
2018-07-19T01:05:15.269Z,16.00
2018-07-19T01:06:20.709Z,16.00
2018-07-19T01:07:26.202Z,16.00
2018-07-19T01:08:31.633Z,15.90
2018-07-19T01:09:37.162Z,16.00
2018-07-19T01:10:42.569Z,16.00
2018-07-19T01:11:48.008Z,16.00
2018-07-19T01:12:53.509Z,16.00
2018-07-19T01:15:04.760Z,16.00
2018-07-19T01:16:10.191Z,16.00
2018-07-19T01:17:15.653Z,16.00
2018-07-19T01:18:21.060Z,15.90
2018-07-19T01:19:26.553Z,15.90
2018-07-19T01:20:32.473Z,15.90
2018-07-19T01:21:37.952Z,15.90
2018-07-19T01:22:43.426Z,15.90
2018-07-19T01:23:48.848Z,15.90
2018-07-19T01:24:54.274Z,15.80
2018-07-19T01:25:59.728Z,15.80
2018-07-19T01:27:05.266Z,15.80
2018-07-19T01:28:10.817Z,15.80
2018-07-19T01:29:16.226Z,15.80
2018-07-19T01:30:21.662Z,15.80
2018-07-19T01:31:27.105Z,15.80
2018-07-19T01:32:32.535Z,15.70
2018-07-19T01:33:37.912Z,15.70
2018-07-19T01:34:43.385Z,15.70
2018-07-19T01:35:49.252Z,15.70
2018-07-19T01:36:54.641Z,15.60
2018-07-19T01:38:00.016Z,15.60
2018-07-19T01:39:08.264Z,15.60
2018-07-19T01:40:13.781Z,15.60
2018-07-19T01:41:42.154Z,15.50
2018-07-19T01:42:47.580Z,15.50
2018-07-19T01:43:53.004Z,15.50
2018-07-19T01:44:58.565Z,15.40
2018-07-19T01:46:03.989Z,15.40
2018-07-19T01:47:09.409Z,15.40
2018-07-19T01:48:14.928Z,15.40
2018-07-19T01:49:20.380Z,15.40
2018-07-19T01:50:25.889Z,15.30
2018-07-19T01:51:31.340Z,15.30
2018-07-19T01:52:36.765Z,15.30
2018-07-19T01:53:42.189Z,15.30
2018-07-19T01:54:47.654Z,15.30
2018-07-19T01:55:53.119Z,15.30
2018-07-19T01:56:58.528Z,15.20
2018-07-19T01:58:03.925Z,15.20
2018-07-19T01:59:09.345Z,15.20
2018-07-19T02:00:14.927Z,15.20
2018-07-19T02:01:20.308Z,15.20
2018-07-19T02:02:26.112Z,15.20
2018-07-19T02:03:31.550Z,15.20
2018-07-19T02:04:37.017Z,15.20
2018-07-19T02:05:42.405Z,15.20
2018-07-19T02:06:47.855Z,15.10
2018-07-19T02:07:53.287Z,15.10
2018-07-19T02:08:58.677Z,15.10
2018-07-19T02:10:04.266Z,15.10
2018-07-19T02:11:09.705Z,15.10
2018-07-19T02:12:15.211Z,15.00
2018-07-19T02:13:20.645Z,15.00
2018-07-19T02:14:26.245Z,15.00
2018-07-19T02:15:31.733Z,15.00
2018-07-19T02:16:37.163Z,15.00
2018-07-19T02:17:42.796Z,15.10
2018-07-19T02:18:48.192Z,15.10
2018-07-19T02:19:53.613Z,15.00
2018-07-19T02:20:59.116Z,15.00
2018-07-19T02:22:04.664Z,15.00
2018-07-19T02:23:10.097Z,15.00
2018-07-19T02:24:15.505Z,15.00
2018-07-19T02:25:20.932Z,15.00
2018-07-19T02:26:26.360Z,15.00
2018-07-19T02:27:31.761Z,15.00
2018-07-19T02:28:37.349Z,15.00
2018-07-19T02:29:42.765Z,15.00
2018-07-19T02:30:48.257Z,15.00
2018-07-19T02:31:53.718Z,15.00
2018-07-19T02:32:59.215Z,15.00
2018-07-19T02:34:05.269Z,15.00
2018-07-19T02:35:10.757Z,15.00
2018-07-19T02:36:16.400Z,15.00
2018-07-19T02:37:21.849Z,15.00
2018-07-19T02:38:27.292Z,15.00
2018-07-19T02:39:32.731Z,15.00
2018-07-19T02:40:38.224Z,15.00
2018-07-19T02:41:43.956Z,15.00
2018-07-19T02:42:49.473Z,15.00
2018-07-19T02:43:54.954Z,15.10
2018-07-19T02:45:00.324Z,15.00
2018-07-19T02:46:05.902Z,15.00
2018-07-19T02:47:11.625Z,15.00
2018-07-19T02:49:22.281Z,15.00
2018-07-19T02:50:27.777Z,14.90
2018-07-19T02:51:33.260Z,14.90
2018-07-19T02:52:38.657Z,14.90
2018-07-19T02:53:44.067Z,14.90
2018-07-19T02:54:49.580Z,14.90
2018-07-19T02:55:55.013Z,14.90
2018-07-19T02:57:00.448Z,14.90
2018-07-19T02:58:05.853Z,14.90
2018-07-19T02:59:11.297Z,14.90
2018-07-19T03:00:16.744Z,14.90
2018-07-19T03:01:22.180Z,14.90
2018-07-19T03:02:27.602Z,14.90
2018-07-19T03:03:33.228Z,14.90
2018-07-19T03:04:38.762Z,14.90
2018-07-19T03:05:44.153Z,15.00
2018-07-19T03:06:49.612Z,15.00
2018-07-19T03:07:55.119Z,14.90
2018-07-19T03:09:00.600Z,15.00
2018-07-19T03:10:06.217Z,15.00
2018-07-19T03:11:11.652Z,15.00
2018-07-19T03:12:17.042Z,15.00
2018-07-19T03:13:22.689Z,14.90
2018-07-19T03:14:28.274Z,14.90
2018-07-19T03:15:33.750Z,14.90
2018-07-19T03:16:39.236Z,15.00
2018-07-19T03:17:44.712Z,15.00
2018-07-19T03:18:50.197Z,15.00
2018-07-19T03:19:55.758Z,15.10
2018-07-19T03:21:01.322Z,15.00
2018-07-19T03:22:07.140Z,15.00
2018-07-19T03:23:12.608Z,15.10
2018-07-19T03:24:18.021Z,15.00
2018-07-19T03:25:23.552Z,15.10
2018-07-19T03:26:28.982Z,15.10
2018-07-19T03:27:34.447Z,15.10
2018-07-19T03:28:39.988Z,15.20
2018-07-19T03:29:45.408Z,15.20
2018-07-19T03:30:51.372Z,15.20
2018-07-19T03:31:56.792Z,15.30
2018-07-19T03:33:02.217Z,15.30
2018-07-19T03:34:07.709Z,15.30
2018-07-19T03:35:13.152Z,15.30
2018-07-19T03:36:18.801Z,15.40
2018-07-19T03:37:24.285Z,15.50
2018-07-19T03:38:29.745Z,15.50
2018-07-19T03:39:35.214Z,15.50
2018-07-19T03:40:40.656Z,15.60
2018-07-19T03:41:46.742Z,15.60
2018-07-19T03:42:52.229Z,15.60
2018-07-19T03:43:57.678Z,15.60
2018-07-19T03:45:03.156Z,15.60
2018-07-19T03:46:08.992Z,15.60
2018-07-19T03:47:14.761Z,15.70
2018-07-19T03:48:20.211Z,15.70
2018-07-19T03:49:25.683Z,15.70
2018-07-19T03:50:31.253Z,15.70
2018-07-19T03:51:36.665Z,15.80
2018-07-19T03:52:42.200Z,15.80
2018-07-19T03:54:52.756Z,15.90
2018-07-19T03:55:58.177Z,16.00
2018-07-19T03:57:03.637Z,16.00
2018-07-19T03:58:09.108Z,16.00
2018-07-19T03:59:14.601Z,16.10
2018-07-19T04:00:20.133Z,16.10
2018-07-19T04:01:25.548Z,16.10
2018-07-19T04:02:31.043Z,16.10
2018-07-19T04:03:36.500Z,16.10
2018-07-19T04:04:42.001Z,16.10
2018-07-19T04:05:47.392Z,16.10
2018-07-19T04:06:52.836Z,16.10
2018-07-19T04:07:58.255Z,16.20
2018-07-19T04:09:04.080Z,16.20
2018-07-19T04:10:09.690Z,16.20
2018-07-19T04:11:15.220Z,16.10
2018-07-19T04:12:20.636Z,16.10
2018-07-19T04:13:26.066Z,16.10
2018-07-19T04:14:31.524Z,16.10
2018-07-19T04:15:37.216Z,16.10
2018-07-19T04:16:42.737Z,16.20
2018-07-19T04:18:03.391Z,16.30
2018-07-19T04:19:08.837Z,16.30
2018-07-19T04:20:14.714Z,16.30
2018-07-19T04:21:20.140Z,16.30
2018-07-19T04:22:25.701Z,16.30
2018-07-19T04:23:31.129Z,16.30
2018-07-19T04:24:36.580Z,16.30
2018-07-19T04:25:42.035Z,16.30
2018-07-19T04:26:47.485Z,16.30
2018-07-19T04:27:53.993Z,16.20
2018-07-19T04:28:59.452Z,16.20
2018-07-19T04:30:05.616Z,16.20
2018-07-19T04:31:11.055Z,16.30
2018-07-19T04:32:16.569Z,16.20
2018-07-19T04:33:22.003Z,16.20
2018-07-19T04:34:27.464Z,16.20
2018-07-19T04:35:32.943Z,16.30
2018-07-19T04:36:38.492Z,16.30
2018-07-19T04:37:44.033Z,16.30
2018-07-19T04:38:49.545Z,16.30
2018-07-19T04:39:54.981Z,16.20
2018-07-19T04:41:00.445Z,16.20
2018-07-19T04:42:06.017Z,16.20
2018-07-19T04:43:11.522Z,16.20
2018-07-19T04:44:16.994Z,16.20
2018-07-19T04:45:22.476Z,16.20
2018-07-19T04:46:27.977Z,16.20
2018-07-19T04:47:33.375Z,16.30
2018-07-19T04:48:38.828Z,16.30
2018-07-19T04:49:44.397Z,16.30
2018-07-19T04:50:49.897Z,16.20
2018-07-19T04:51:55.302Z,16.20
2018-07-19T04:53:00.718Z,16.10
2018-07-19T04:54:07.251Z,16.10
2018-07-19T04:55:12.689Z,16.10
2018-07-19T04:56:18.089Z,16.00
2018-07-19T04:57:23.697Z,16.00
2018-07-19T04:58:29.172Z,16.00
2018-07-19T04:59:34.628Z,16.00
2018-07-19T05:00:40.110Z,16.00
2018-07-19T05:01:45.643Z,16.00
2018-07-19T05:02:51.044Z,16.00
2018-07-19T05:03:56.537Z,16.10
2018-07-19T05:05:01.986Z,16.10
2018-07-19T05:06:07.453Z,16.20
2018-07-19T05:07:12.888Z,16.30
2018-07-19T05:08:18.423Z,16.40
2018-07-19T05:09:23.923Z,16.40
2018-07-19T05:10:29.372Z,16.40
2018-07-19T05:11:34.796Z,16.50
2018-07-19T05:12:40.656Z,16.50
2018-07-19T05:13:46.153Z,16.60
2018-07-19T05:14:51.600Z,16.60
2018-07-19T05:15:57.068Z,16.60
2018-07-19T05:17:02.461Z,16.60
2018-07-19T05:18:08.288Z,16.60
2018-07-19T05:19:13.786Z,16.70
2018-07-19T05:20:19.290Z,16.70
2018-07-19T05:21:24.797Z,16.70
2018-07-19T05:22:30.251Z,16.70
2018-07-19T05:23:35.788Z,16.70
2018-07-19T05:24:41.282Z,16.60
2018-07-19T05:25:46.902Z,16.60
2018-07-19T05:26:52.333Z,16.50
2018-07-19T05:27:57.765Z,16.50
2018-07-19T05:29:03.209Z,16.50
2018-07-19T05:30:08.697Z,16.50
2018-07-19T05:31:14.138Z,16.60
2018-07-19T05:32:19.560Z,16.60
2018-07-19T05:33:25.345Z,16.60
2018-07-19T05:34:30.897Z,16.60
2018-07-19T05:35:36.358Z,16.70
2018-07-19T05:36:41.835Z,16.60
2018-07-19T05:37:47.305Z,16.60
2018-07-19T05:38:52.745Z,16.70
2018-07-19T05:39:58.154Z,16.70
2018-07-19T05:41:03.654Z,16.60
2018-07-19T05:42:09.508Z,16.70
2018-07-19T05:43:14.986Z,16.70
2018-07-19T05:44:20.552Z,16.70
2018-07-19T05:45:25.995Z,16.70
2018-07-19T05:46:31.466Z,16.70
2018-07-19T05:47:37.154Z,16.70
2018-07-19T05:48:42.598Z,16.70
2018-07-19T05:49:48.032Z,16.70
2018-07-19T05:50:53.562Z,16.70
2018-07-19T05:51:59.090Z,16.70
2018-07-19T05:53:04.908Z,16.80
2018-07-19T05:54:10.445Z,16.70
2018-07-19T05:55:15.892Z,16.80
2018-07-19T05:56:21.369Z,16.80
2018-07-19T05:57:26.776Z,16.80
2018-07-19T05:58:32.599Z,16.80
2018-07-19T05:59:38.049Z,16.80
2018-07-19T06:00:43.561Z,16.80
2018-07-19T06:01:48.965Z,16.90
2018-07-19T06:02:54.373Z,16.90
2018-07-19T06:03:59.841Z,17.00
2018-07-19T06:06:10.661Z,17.10
2018-07-19T06:07:16.054Z,17.10
2018-07-19T06:08:21.520Z,17.10
2018-07-19T06:09:26.936Z,17.10
2018-07-19T06:10:32.405Z,17.10
2018-07-19T06:11:37.828Z,17.10
2018-07-19T06:12:43.300Z,17.20
2018-07-19T06:13:48.753Z,17.30
2018-07-19T06:14:54.239Z,17.20
2018-07-19T06:15:59.746Z,17.30
2018-07-19T06:17:05.172Z,17.20
2018-07-19T06:18:10.612Z,17.30
2018-07-19T06:19:16.117Z,17.40
2018-07-19T06:20:21.564Z,17.40
2018-07-19T06:21:27.009Z,17.50
2018-07-19T06:22:32.517Z,17.40
2018-07-19T06:23:37.978Z,17.40
2018-07-19T06:24:43.597Z,17.40
2018-07-19T06:25:49.008Z,17.40
2018-07-19T06:26:54.467Z,17.40
2018-07-19T06:28:00.060Z,17.40
2018-07-19T06:29:05.658Z,17.40
2018-07-19T06:30:11.684Z,17.40
2018-07-19T06:31:17.137Z,17.40
2018-07-19T06:32:22.673Z,17.50
2018-07-19T06:33:28.176Z,17.50
2018-07-19T06:34:33.652Z,17.60
2018-07-19T06:35:42.465Z,17.60
2018-07-19T06:36:47.959Z,17.70
2018-07-19T06:37:53.420Z,17.80
2018-07-19T06:38:58.817Z,17.90
2018-07-19T06:40:05.062Z,18.00
2018-07-19T06:41:10.674Z,18.10
2018-07-19T06:42:16.049Z,18.20
2018-07-19T06:43:21.557Z,18.30
2018-07-19T06:44:27.106Z,18.30
2018-07-19T06:45:32.620Z,18.40
2018-07-19T06:46:38.053Z,18.50
2018-07-19T06:47:43.523Z,18.50
2018-07-19T06:48:49.017Z,18.60
2018-07-19T06:49:54.542Z,18.60
2018-07-19T06:51:00.054Z,18.70
2018-07-19T06:52:05.609Z,18.80
2018-07-19T06:53:11.096Z,18.90
2018-07-19T06:54:16.603Z,19.00
2018-07-19T06:55:22.142Z,19.10
2018-07-19T06:56:27.537Z,19.10
2018-07-19T06:57:33.059Z,19.20
2018-07-19T06:58:38.616Z,19.20
2018-07-19T06:59:44.053Z,19.30
2018-07-19T07:00:49.528Z,19.20
2018-07-19T07:01:54.954Z,19.20
2018-07-19T07:03:00.436Z,19.30
2018-07-19T07:04:05.952Z,19.30
2018-07-19T07:05:11.415Z,19.40
2018-07-19T07:06:16.902Z,19.40
2018-07-19T07:07:22.476Z,19.50
2018-07-19T07:08:28.030Z,19.70
2018-07-19T07:10:38.601Z,19.70
2018-07-19T07:11:44.028Z,19.70
2018-07-19T07:12:49.528Z,19.70
2018-07-19T07:13:55.046Z,19.80
2018-07-19T07:15:00.598Z,19.80
2018-07-19T07:16:06.359Z,19.70
2018-07-19T07:17:11.870Z,19.70
2018-07-19T07:18:17.305Z,19.70
2018-07-19T07:19:22.770Z,19.80
2018-07-19T07:20:28.189Z,19.90
2018-07-19T07:21:33.698Z,19.90
2018-07-19T07:22:39.152Z,19.90
2018-07-19T07:23:44.559Z,19.90
2018-07-19T07:24:50.405Z,20.10
2018-07-19T07:25:56.296Z,20.10
2018-07-19T07:27:01.761Z,20.20
2018-07-19T07:28:07.257Z,20.20
2018-07-19T07:29:12.726Z,20.20
2018-07-19T07:30:18.326Z,20.40
2018-07-19T07:31:23.765Z,20.40
2018-07-19T07:32:29.188Z,20.50
2018-07-19T07:33:34.586Z,20.50
2018-07-19T07:34:40.066Z,20.60
2018-07-19T07:35:46.269Z,20.60
2018-07-19T07:36:51.749Z,20.60
2018-07-19T07:37:57.180Z,20.70
2018-07-19T07:39:02.758Z,20.80
2018-07-19T07:40:08.440Z,20.80
2018-07-19T07:41:13.904Z,20.90
2018-07-19T07:42:19.340Z,20.90
2018-07-19T07:43:24.850Z,20.90
2018-07-19T07:44:30.292Z,21.00
2018-07-19T07:45:35.974Z,21.00
2018-07-19T07:46:41.388Z,21.00
2018-07-19T07:47:46.908Z,21.10
2018-07-19T07:48:52.368Z,21.20
2018-07-19T07:49:57.864Z,21.40
2018-07-19T07:51:03.337Z,21.50
2018-07-19T07:52:09.660Z,21.60
2018-07-19T07:53:15.266Z,21.70
2018-07-19T07:54:20.741Z,21.80
2018-07-19T07:55:26.167Z,21.70
2018-07-19T07:56:31.693Z,21.80
2018-07-19T07:57:37.104Z,21.80
2018-07-19T07:58:42.628Z,21.90
2018-07-19T07:59:48.476Z,22.00
2018-07-19T08:00:54.002Z,22.10
2018-07-19T08:01:59.416Z,22.10
2018-07-19T08:03:04.956Z,22.20
2018-07-19T08:04:10.521Z,22.20
2018-07-19T08:05:15.997Z,22.10
2018-07-19T08:06:21.544Z,22.10
2018-07-19T08:07:26.960Z,22.10
2018-07-19T08:08:32.417Z,22.10
2018-07-19T08:09:38.120Z,22.10
2018-07-19T08:10:43.580Z,22.10
2018-07-19T08:11:49.065Z,22.10
2018-07-19T08:12:54.716Z,22.20
2018-07-19T08:14:00.194Z,22.20
2018-07-19T08:15:05.787Z,22.30
2018-07-19T08:16:11.314Z,22.40
2018-07-19T08:17:16.779Z,22.50
2018-07-19T08:18:22.225Z,22.60
2018-07-19T08:19:27.610Z,22.70
2018-07-19T08:20:33.006Z,22.70
2018-07-19T08:21:38.487Z,22.70
2018-07-19T08:22:43.916Z,22.60
2018-07-19T08:23:49.353Z,22.40
2018-07-19T08:24:55.698Z,22.50
2018-07-19T08:26:01.218Z,22.60
2018-07-19T08:27:06.677Z,22.60
2018-07-19T08:28:12.170Z,22.70
2018-07-19T08:29:17.837Z,22.70
2018-07-19T08:30:23.301Z,22.80
2018-07-19T08:31:28.749Z,23.00
2018-07-19T08:32:34.219Z,22.90
2018-07-19T08:33:39.705Z,22.90
2018-07-19T08:34:45.139Z,22.80
2018-07-19T08:35:50.947Z,22.70
2018-07-19T08:38:01.341Z,22.80
2018-07-19T08:39:11.860Z,22.70
2018-07-19T08:40:18.313Z,22.70
2018-07-19T08:41:23.704Z,22.70
2018-07-19T08:42:29.163Z,22.70
2018-07-19T08:43:34.654Z,22.80
2018-07-19T08:44:40.481Z,22.90
2018-07-19T08:45:45.973Z,22.90
2018-07-19T08:46:51.413Z,23.00
2018-07-19T08:47:56.824Z,23.00
2018-07-19T08:49:02.539Z,23.00
2018-07-19T08:50:08.632Z,23.20
2018-07-19T08:51:14.128Z,23.20
2018-07-19T08:52:19.539Z,23.30
2018-07-19T08:53:24.984Z,23.20
2018-07-19T08:54:30.452Z,22.90
2018-07-19T08:55:35.975Z,23.10
2018-07-19T08:56:41.731Z,23.10
2018-07-19T08:57:47.481Z,23.30
2018-07-19T08:58:52.933Z,23.50
2018-07-19T08:59:58.381Z,23.40
2018-07-19T09:01:03.890Z,23.40
2018-07-19T09:02:09.320Z,23.50
2018-07-19T09:03:15.124Z,23.60
2018-07-19T09:04:21.308Z,23.80
2018-07-19T09:05:26.883Z,23.90
2018-07-19T09:06:32.362Z,24.10
2018-07-19T09:07:37.832Z,24.00
2018-07-19T09:08:43.351Z,23.90
2018-07-19T09:09:48.776Z,23.90
2018-07-19T09:10:54.261Z,23.80
2018-07-19T09:11:59.744Z,23.90
2018-07-19T09:13:05.227Z,23.90
2018-07-19T09:14:10.729Z,23.90
2018-07-19T09:15:16.925Z,23.90
2018-07-19T09:16:22.368Z,23.80
2018-07-19T09:17:27.917Z,23.70
2018-07-19T09:18:33.368Z,23.60
2018-07-19T09:19:38.924Z,23.60
2018-07-19T09:20:44.400Z,23.50
2018-07-19T09:21:49.986Z,23.50
2018-07-19T09:22:55.449Z,23.50
2018-07-19T09:24:00.900Z,23.60
2018-07-19T09:25:06.786Z,23.70
2018-07-19T09:26:12.781Z,23.90
2018-07-19T09:27:18.377Z,24.00
2018-07-19T09:28:23.988Z,24.00
2018-07-19T09:29:29.452Z,24.00
2018-07-19T09:30:35.091Z,24.00
2018-07-19T09:31:40.609Z,24.10
2018-07-19T09:32:46.106Z,24.10
2018-07-19T09:33:51.731Z,24.20
2018-07-19T09:34:57.240Z,24.20
2018-07-19T09:36:02.841Z,24.30
2018-07-19T09:37:08.309Z,24.30
2018-07-19T09:38:14.003Z,24.30
2018-07-19T09:39:19.553Z,24.40
2018-07-19T09:40:24.988Z,24.60
2018-07-19T09:41:30.976Z,24.80
2018-07-19T09:42:36.537Z,25.00
2018-07-19T09:43:42.077Z,25.00
2018-07-19T09:44:47.609Z,25.10
2018-07-19T09:45:53.342Z,25.10
2018-07-19T09:46:58.810Z,25.10
2018-07-19T09:49:09.326Z,25.30
2018-07-19T09:50:14.808Z,25.40
2018-07-19T09:51:20.352Z,25.50
2018-07-19T09:52:25.814Z,25.30
2018-07-19T09:53:31.213Z,25.30
2018-07-19T09:54:54.701Z,25.10
2018-07-19T09:56:00.138Z,25.00
2018-07-19T09:57:05.645Z,24.90
2018-07-19T09:58:11.288Z,25.00
2018-07-19T09:59:18.357Z,25.10
2018-07-19T10:00:29.793Z,25.30
2018-07-19T10:01:35.788Z,25.40
2018-07-19T10:02:41.362Z,25.50
2018-07-19T10:03:47.748Z,25.60
2018-07-19T10:04:53.187Z,25.70
2018-07-19T10:05:58.634Z,25.90
2018-07-19T10:07:04.136Z,25.90
2018-07-19T10:08:09.580Z,25.90
2018-07-19T10:09:15.136Z,25.80
2018-07-19T10:10:20.702Z,25.80
2018-07-19T10:11:26.089Z,25.80
2018-07-19T10:12:31.569Z,25.80
2018-07-19T10:13:37.065Z,25.70
2018-07-19T10:14:42.460Z,25.60
2018-07-19T10:15:47.905Z,25.60
2018-07-19T10:16:53.360Z,25.70
2018-07-19T10:18:00.118Z,25.80
2018-07-19T10:20:11.698Z,26.00
2018-07-19T10:21:17.216Z,26.10
2018-07-19T10:22:22.990Z,26.20
2018-07-19T10:23:29.013Z,26.20
2018-07-19T10:24:34.801Z,26.10
2018-07-19T10:25:40.453Z,26.10
2018-07-19T10:26:45.977Z,26.20
2018-07-19T10:27:51.414Z,26.30
2018-07-19T10:30:02.398Z,26.40
2018-07-19T10:31:08.031Z,26.30
2018-07-19T10:32:13.663Z,26.40
2018-07-19T10:33:19.512Z,26.40
2018-07-19T10:34:25.380Z,26.30
2018-07-19T10:35:30.770Z,26.30
2018-07-19T10:36:36.278Z,26.30
2018-07-19T10:37:41.876Z,26.30
2018-07-19T10:38:52.764Z,26.40
2018-07-19T10:40:01.637Z,26.50
2018-07-19T10:41:07.434Z,26.50
2018-07-19T10:42:13.877Z,26.60
2018-07-19T10:43:19.857Z,26.60
2018-07-19T10:44:25.364Z,26.60
2018-07-19T10:45:30.832Z,26.60
2018-07-19T10:46:36.240Z,26.60
2018-07-19T10:47:43.761Z,26.50
2018-07-19T10:48:49.211Z,26.30
2018-07-19T10:49:55.131Z,26.20
2018-07-19T10:51:00.673Z,26.10
2018-07-19T10:52:06.337Z,26.00
2018-07-19T10:53:12.333Z,25.90
2018-07-19T10:54:17.765Z,25.80
2018-07-19T10:55:23.185Z,25.70
2018-07-19T10:56:29.091Z,25.70
2018-07-19T10:57:34.543Z,25.70
2018-07-19T10:58:40.038Z,25.80
2018-07-19T10:59:45.845Z,25.90
2018-07-19T11:00:51.280Z,26.10
2018-07-19T11:01:56.744Z,26.20
2018-07-19T11:03:02.258Z,26.20
2018-07-19T11:04:07.713Z,26.10
2018-07-19T11:05:13.252Z,26.20
2018-07-19T11:06:18.713Z,26.30
2018-07-19T11:07:24.336Z,26.30
2018-07-19T11:08:29.751Z,26.40
2018-07-19T11:09:35.258Z,26.40
2018-07-19T11:10:40.745Z,26.60
2018-07-19T11:11:46.255Z,26.70
2018-07-19T11:12:51.725Z,26.80
2018-07-19T11:13:57.193Z,27.10
2018-07-19T11:15:02.561Z,27.20
2018-07-19T11:16:08.269Z,27.30
2018-07-19T11:17:13.761Z,27.40
2018-07-19T11:18:19.297Z,27.40
2018-07-19T11:19:25.133Z,27.30
2018-07-19T11:20:30.508Z,27.50
2018-07-19T11:21:37.172Z,27.60
2018-07-19T11:23:58.765Z,27.80
2018-07-19T11:25:05.370Z,28.10
2018-07-19T11:26:12.300Z,28.20
2018-07-19T11:27:17.849Z,28.40
2018-07-19T11:28:23.544Z,28.30
2018-07-19T11:29:28.985Z,28.20
2018-07-19T11:30:34.486Z,28.10
2018-07-19T11:31:40.237Z,28.10
2018-07-19T11:32:45.677Z,27.90
2018-07-19T11:33:51.297Z,27.70
2018-07-19T11:36:01.923Z,27.60
2018-07-19T11:37:07.469Z,27.60
2018-07-19T11:38:13.334Z,27.50
2018-07-19T11:39:19.067Z,27.50
2018-07-19T11:40:25.130Z,27.30
2018-07-19T11:41:30.916Z,27.30
2018-07-19T11:42:36.380Z,27.30
2018-07-19T11:43:41.891Z,27.30
2018-07-19T11:44:47.459Z,27.20
2018-07-19T11:45:53.001Z,27.20
2018-07-19T11:46:58.556Z,27.30
2018-07-19T11:48:04.346Z,27.40
2018-07-19T11:49:09.801Z,27.50
2018-07-19T11:50:15.339Z,27.60
2018-07-19T11:52:25.960Z,27.40
2018-07-19T11:53:31.538Z,27.40
2018-07-19T11:54:36.936Z,27.40
2018-07-19T11:55:42.447Z,27.30
2018-07-19T11:56:47.977Z,27.30
2018-07-19T11:57:53.729Z,27.10
2018-07-19T11:58:59.225Z,27.10
2018-07-19T12:00:05.303Z,27.00
2018-07-19T12:01:10.762Z,26.80
2018-07-19T12:02:16.264Z,26.80
2018-07-19T12:03:21.717Z,26.80
2018-07-19T12:04:27.760Z,26.90
2018-07-19T12:05:33.257Z,27.00
2018-07-19T12:06:38.650Z,27.20
2018-07-19T12:07:44.151Z,27.20
2018-07-19T12:08:49.573Z,27.30
2018-07-19T12:09:55.075Z,27.50
2018-07-19T12:11:00.612Z,27.70
2018-07-19T12:12:06.396Z,27.70
2018-07-19T12:13:11.896Z,27.80
2018-07-19T12:14:17.461Z,27.80
2018-07-19T12:15:23.052Z,27.60
2018-07-19T12:16:28.824Z,27.40
2018-07-19T12:17:34.289Z,27.20
2018-07-19T12:18:39.688Z,27.30
2018-07-19T12:19:45.094Z,27.30
2018-07-19T12:20:50.657Z,27.40
2018-07-19T12:21:56.680Z,27.30
2018-07-19T12:23:02.252Z,27.20
2018-07-19T12:24:07.852Z,27.20
2018-07-19T12:25:14.113Z,27.10
2018-07-19T12:26:20.062Z,27.10
2018-07-19T12:27:25.825Z,27.30
2018-07-19T12:28:31.416Z,27.40
2018-07-19T12:29:36.828Z,27.50
2018-07-19T12:30:42.533Z,27.50
2018-07-19T12:31:47.951Z,27.60
2018-07-19T12:32:53.345Z,27.80
2018-07-19T12:33:58.900Z,27.90
2018-07-19T12:35:04.560Z,28.00
2018-07-19T12:36:10.209Z,28.20
2018-07-19T12:37:15.841Z,28.30
2018-07-19T12:38:21.326Z,28.40
2018-07-19T12:39:26.892Z,28.50
2018-07-19T12:40:32.750Z,28.70
2018-07-19T12:41:38.496Z,28.70
2018-07-19T12:42:44.008Z,28.70
2018-07-19T12:43:49.651Z,28.60
2018-07-19T12:44:55.131Z,28.70
2018-07-19T12:46:00.796Z,28.60
2018-07-19T12:47:06.647Z,28.70
2018-07-19T12:48:12.288Z,28.50
2018-07-19T12:49:18.506Z,28.60
2018-07-19T12:50:24.345Z,28.40
2018-07-19T12:51:29.882Z,28.10
2018-07-19T12:52:35.851Z,28.20
2018-07-19T12:53:41.561Z,28.00
2018-07-19T12:54:47.040Z,28.00
2018-07-19T12:55:52.501Z,28.10
2018-07-19T12:56:59.110Z,28.20
2018-07-19T12:58:04.661Z,28.20
2018-07-19T12:59:10.248Z,28.40
2018-07-19T13:00:15.859Z,28.50
2018-07-19T13:01:21.362Z,28.60
2018-07-19T13:02:26.889Z,28.70
2018-07-19T13:03:32.372Z,28.90
2018-07-19T13:04:37.864Z,29.10
2018-07-19T13:05:43.354Z,29.40
2018-07-19T13:06:48.881Z,29.40
2018-07-19T13:07:54.299Z,29.20
2018-07-19T13:08:59.733Z,29.40
2018-07-19T13:10:05.457Z,29.40
2018-07-19T13:11:11.061Z,29.50
2018-07-19T13:12:17.041Z,29.40
2018-07-19T13:13:23.051Z,29.40
2018-07-19T13:14:29.487Z,29.20
2018-07-19T13:15:36.201Z,29.00
2018-07-19T13:16:41.968Z,29.10
2018-07-19T13:17:47.524Z,29.00
2018-07-19T13:18:52.990Z,29.00
2018-07-19T13:19:58.484Z,29.20
2018-07-19T13:21:03.997Z,29.20
2018-07-19T13:22:09.616Z,29.40
2018-07-19T13:23:15.185Z,29.60
2018-07-19T13:24:20.984Z,29.40
2018-07-19T13:25:26.452Z,29.40
2018-07-19T13:26:32.277Z,29.40
2018-07-19T13:27:37.713Z,29.50
2018-07-19T13:28:43.137Z,29.80
2018-07-19T13:29:48.836Z,29.90
2018-07-19T13:30:54.820Z,30.10
2018-07-19T13:32:00.218Z,30.30
2018-07-19T13:33:05.677Z,30.00
2018-07-19T13:34:11.989Z,29.90
2018-07-19T13:35:17.473Z,29.80
2018-07-19T13:36:23.088Z,29.70
2018-07-19T13:37:28.476Z,29.70
2018-07-19T13:38:34.078Z,29.80
2018-07-19T13:39:45.644Z,29.70
2018-07-19T13:40:52.335Z,29.70
2018-07-19T13:41:57.753Z,29.70
2018-07-19T13:43:03.181Z,29.80
2018-07-19T13:44:08.618Z,29.90
2018-07-19T13:45:14.069Z,29.70
2018-07-19T13:46:19.487Z,29.30
2018-07-19T13:47:24.933Z,29.20
2018-07-19T13:48:30.478Z,29.20
2018-07-19T13:49:35.809Z,29.10
2018-07-19T13:50:41.351Z,29.00
2018-07-19T13:51:46.818Z,28.90
2018-07-19T13:53:37.514Z,28.80
2018-07-19T13:54:49.291Z,28.60
2018-07-19T13:55:54.752Z,28.60
2018-07-19T13:57:00.153Z,28.70
2018-07-19T13:58:05.724Z,28.70
2018-07-19T13:59:11.519Z,28.80
2018-07-19T14:00:16.975Z,28.80
2018-07-19T14:01:22.381Z,28.90
2018-07-19T14:02:27.820Z,28.80
2018-07-19T14:03:33.570Z,29.10
2018-07-19T14:04:39.049Z,29.20
2018-07-19T14:05:44.461Z,29.20
2018-07-19T14:06:49.892Z,29.30
2018-07-19T14:07:55.301Z,29.20
2018-07-19T14:09:00.800Z,29.20
2018-07-19T14:10:06.755Z,29.10
2018-07-19T14:11:12.186Z,29.10
2018-07-19T14:12:17.626Z,29.10
2018-07-19T14:13:23.096Z,29.00
2018-07-19T14:14:28.525Z,28.90
2018-07-19T14:15:33.935Z,28.90
2018-07-19T14:16:39.770Z,28.70
2018-07-19T14:17:45.354Z,28.60
2018-07-19T14:18:50.870Z,28.60
2018-07-19T14:19:56.214Z,28.70